createdAt,value
2018-04-19T00:00:19.730Z,92.30
2018-04-19T00:02:49.600Z,91.60
2018-04-19T00:05:19.498Z,91.50
2018-04-19T00:07:50.282Z,91.90
2018-04-19T00:10:20.174Z,91.90
2018-04-19T00:12:50.113Z,91.30
2018-04-19T00:15:20.021Z,92.10
2018-04-19T00:17:49.917Z,92.30
2018-04-19T00:20:20.587Z,91.00
2018-04-19T00:22:50.578Z,91.00
2018-04-19T00:25:20.530Z,91.70
2018-04-19T00:27:51.247Z,92.30
2018-04-19T00:30:21.279Z,92.20
2018-04-19T00:32:51.315Z,93.10
2018-04-19T00:35:21.995Z,92.10
2018-04-19T00:37:51.889Z,92.10
2018-04-19T00:40:22.509Z,91.60
2018-04-19T00:42:52.424Z,91.60
2018-04-19T00:45:23.076Z,92.40
2018-04-19T00:47:53.921Z,92.00
2018-04-19T00:50:23.878Z,92.00
2018-04-19T00:53:10.609Z,91.60
2018-04-19T00:55:40.530Z,91.40
2018-04-19T00:58:11.187Z,92.40
2018-04-19T01:00:41.841Z,92.20
2018-04-19T01:03:11.750Z,92.20
2018-04-19T01:05:41.618Z,91.80
2018-04-19T01:08:12.278Z,91.70
2018-04-19T01:10:43.026Z,92.00
2018-04-19T01:13:12.950Z,92.00
2018-04-19T01:15:43.682Z,91.60
2018-04-19T01:18:14.406Z,91.70
2018-04-19T01:20:44.330Z,91.70
2018-04-19T01:23:14.228Z,91.50
2018-04-19T01:25:44.926Z,92.90
2018-04-19T01:28:14.807Z,92.90
2018-04-19T01:30:44.737Z,93.30
2018-04-19T01:33:15.462Z,92.60
2018-04-19T01:36:03.801Z,93.10
2018-04-19T01:38:34.622Z,94.70
2018-04-19T01:41:04.499Z,94.70
2018-04-19T01:43:35.201Z,93.00
2018-04-19T01:46:05.909Z,93.60
2018-04-19T01:48:35.763Z,93.60
2018-04-19T01:51:06.512Z,93.30
2018-04-19T01:53:37.225Z,94.40
2018-04-19T01:56:08.085Z,95.00
2018-04-19T01:58:37.997Z,95.00
2018-04-19T02:01:08.732Z,93.00
2018-04-19T02:03:38.673Z,93.00
2018-04-19T02:06:09.458Z,93.00
2018-04-19T02:08:40.197Z,93.30
2018-04-19T02:11:10.869Z,94.30
2018-04-19T02:13:40.841Z,94.30
2018-04-19T02:16:11.529Z,93.90
2018-04-19T02:18:41.437Z,93.90
2018-04-19T02:21:11.347Z,93.80
2018-04-19T02:23:41.288Z,93.90
2018-04-19T02:26:11.216Z,94.70
2018-04-19T02:28:41.075Z,95.10
2018-04-19T02:31:11.722Z,95.10
2018-04-19T02:33:41.649Z,95.10
2018-04-19T02:36:11.508Z,95.30
2018-04-19T02:38:42.219Z,97.40
2018-04-19T02:41:12.962Z,97.30
2018-04-19T02:43:42.899Z,97.30
2018-04-19T02:46:12.866Z,97.00
2018-04-19T02:48:43.627Z,96.30
2018-04-19T02:51:13.607Z,96.20
2018-04-19T02:53:44.467Z,95.50
2018-04-19T02:56:15.223Z,95.80
2018-04-19T02:58:45.953Z,96.30
2018-04-19T03:01:16.646Z,96.90
2018-04-19T03:03:46.596Z,96.90
2018-04-19T03:06:17.330Z,96.60
2018-04-19T03:08:48.085Z,96.30
2018-04-19T03:11:18.810Z,96.30
2018-04-19T03:13:48.763Z,96.30
2018-04-19T03:16:19.522Z,97.40
2018-04-19T03:18:50.238Z,97.50
2018-04-19T03:21:20.195Z,97.50
2018-04-19T03:23:50.914Z,97.90
2018-04-19T03:26:20.930Z,97.90
2018-04-19T03:28:50.865Z,97.70
2018-04-19T03:31:21.562Z,98.00
2018-04-19T03:33:52.267Z,97.00
2018-04-19T03:36:22.190Z,97.30
2018-04-19T03:38:52.209Z,97.40
2018-04-19T03:41:22.174Z,97.50
2018-04-19T03:43:52.905Z,97.00
2018-04-19T03:46:23.634Z,97.80
2018-04-19T03:48:54.326Z,98.00
2018-04-19T03:51:24.269Z,98.00
2018-04-19T03:53:54.191Z,97.80
2018-04-19T03:56:24.887Z,98.20
2018-04-19T03:58:54.799Z,98.20
2018-04-19T04:01:24.725Z,98.90
2018-04-19T04:03:55.484Z,98.80
2018-04-19T04:06:26.264Z,98.60
2018-04-19T04:08:56.234Z,98.60
2018-04-19T04:11:26.141Z,98.60
2018-04-19T04:13:56.113Z,98.70
2018-04-19T04:16:44.390Z,97.70
2018-04-19T04:19:32.042Z,97.70
2018-04-19T04:25:16.723Z,98.30
2018-04-19T04:27:50.263Z,98.10
2018-04-19T04:30:20.221Z,98.00
2018-04-19T04:32:50.967Z,99.90
2018-04-19T04:35:21.781Z,99.90
2018-04-19T04:37:52.634Z,99.90
2018-04-19T04:40:23.487Z,99.60
2018-04-19T04:42:54.208Z,98.80
2018-04-19T04:45:24.115Z,98.80
2018-04-19T04:47:54.885Z,99.80
2018-04-19T04:50:25.622Z,99.90
2018-04-19T04:52:55.627Z,99.90
2018-04-19T04:55:26.326Z,99.30
2018-04-19T04:57:57.044Z,98.40
2018-04-19T05:00:27.883Z,98.80
2018-04-19T05:02:58.747Z,99.30
2018-04-19T05:05:28.659Z,99.30
2018-04-19T05:07:58.720Z,99.40
2018-04-19T05:10:28.656Z,99.60
2018-04-19T05:12:58.570Z,99.90
2018-04-19T05:15:28.550Z,99.90
2018-04-19T05:17:58.548Z,99.80
2018-04-19T05:20:28.550Z,99.60
2018-04-19T05:22:59.267Z,99.50
2018-04-19T05:25:30.012Z,99.50
2018-04-19T05:28:00.006Z,99.50
2018-04-19T05:30:30.790Z,99.00
2018-04-19T05:33:01.517Z,98.60
2018-04-19T05:35:32.209Z,98.70
2018-04-19T05:38:02.191Z,98.40
2018-04-19T05:40:32.834Z,98.20
2018-04-19T05:43:02.701Z,98.20
2018-04-19T05:45:32.560Z,99.30
2018-04-19T05:48:03.363Z,99.20
2018-04-19T05:50:34.050Z,99.00
2018-04-19T05:53:04.010Z,98.90
2018-04-19T05:55:34.000Z,98.90
2018-04-19T05:58:04.110Z,99.10
2018-04-19T06:00:34.104Z,99.00
2018-04-19T06:03:04.948Z,97.50
2018-04-19T06:05:34.879Z,97.50
2018-04-19T06:08:04.791Z,97.40
2018-04-19T06:10:34.749Z,97.70
2018-04-19T06:13:05.470Z,97.50
2018-04-19T06:15:36.171Z,97.10
2018-04-19T06:18:06.927Z,96.50
2018-04-19T06:20:37.671Z,96.00
2018-04-19T06:23:07.680Z,95.90
2018-04-19T06:25:38.441Z,95.80
2018-04-19T06:28:09.261Z,95.30
2018-04-19T06:30:40.012Z,95.10
2018-04-19T06:33:10.690Z,95.60
2018-04-19T06:35:41.721Z,95.50
2018-04-19T06:38:11.662Z,95.90
2018-04-19T06:40:42.737Z,95.60
2018-04-19T06:43:12.881Z,95.50
2018-04-19T06:45:43.678Z,95.40
2018-04-19T06:48:13.686Z,95.30
2018-04-19T06:50:43.621Z,95.50
2018-04-19T06:53:13.581Z,94.40
2018-04-19T06:55:44.363Z,94.30
2018-04-19T06:58:15.109Z,95.00
2018-04-19T07:00:45.067Z,95.00
2018-04-19T07:03:15.022Z,95.60
2018-04-19T07:05:46.223Z,95.90
2018-04-19T07:08:16.203Z,95.90
2018-04-19T07:10:46.153Z,95.20
2018-04-19T07:13:17.141Z,94.80
2018-04-19T07:15:47.107Z,94.80
2018-04-19T07:18:17.068Z,94.30
2018-04-19T07:20:47.790Z,93.10
2018-04-19T07:23:18.550Z,91.90
2018-04-19T07:25:49.218Z,92.90
2018-04-19T07:28:19.146Z,92.90
2018-04-19T07:30:49.941Z,92.60
2018-04-19T07:33:19.902Z,92.70
2018-04-19T07:35:49.917Z,90.90
2018-04-19T07:38:19.885Z,91.00
2018-04-19T07:40:50.569Z,90.00
2018-04-19T07:43:20.524Z,90.00
2018-04-19T07:45:51.210Z,90.30
2018-04-19T07:48:21.862Z,90.10
2018-04-19T07:50:51.859Z,90.10
2018-04-19T07:53:22.567Z,88.70
2018-04-19T07:55:53.427Z,86.50
2018-04-19T07:58:24.286Z,83.50
2018-04-19T08:00:55.010Z,84.70
2018-04-19T08:03:26.262Z,86.00
2018-04-19T08:05:56.978Z,86.60
2018-04-19T08:08:26.893Z,86.50
2018-04-19T08:10:57.670Z,81.20
2018-04-19T08:13:27.614Z,81.20
2018-04-19T08:15:58.346Z,82.90
2018-04-19T08:18:28.274Z,82.90
2018-04-19T08:20:58.219Z,82.00
2018-04-19T08:23:28.167Z,79.80
2018-04-19T08:25:58.839Z,78.70
2018-04-19T08:28:28.872Z,78.70
2018-04-19T08:30:58.765Z,81.60
2018-04-19T08:33:28.702Z,78.10
2018-04-19T08:35:59.753Z,75.80
2018-04-19T08:38:30.469Z,77.00
2018-04-19T08:41:01.211Z,78.10
2018-04-19T08:43:31.122Z,78.10
2018-04-19T08:46:01.882Z,75.20
2018-04-19T08:48:31.814Z,75.10
2018-04-19T08:51:02.530Z,77.50
2018-04-19T08:53:33.349Z,73.70
2018-04-19T08:56:04.172Z,75.60
2018-04-19T08:58:34.068Z,75.60
2018-04-19T09:01:04.010Z,73.80
2018-04-19T09:03:33.909Z,74.00
2018-04-19T09:06:03.970Z,73.70
2018-04-19T09:08:34.686Z,72.70
2018-04-19T09:11:04.759Z,72.60
2018-04-19T09:13:34.716Z,69.00
2018-04-19T09:16:04.694Z,68.00
2018-04-19T09:18:34.637Z,66.50
2018-04-19T09:21:05.392Z,63.50
2018-04-19T09:23:36.085Z,67.10
2018-04-19T09:26:06.006Z,67.10
2018-04-19T09:28:37.355Z,64.80
2018-04-19T09:31:07.259Z,63.90
2018-04-19T09:33:37.169Z,63.20
2018-04-19T09:36:08.042Z,64.90
2018-04-19T09:38:38.154Z,64.70
2018-04-19T09:41:08.082Z,64.40
2018-04-19T09:43:38.819Z,62.80
2018-04-19T09:46:09.575Z,60.60
2018-04-19T09:48:39.522Z,60.60
2018-04-19T09:51:10.269Z,56.70
2018-04-19T09:53:41.029Z,56.20
2018-04-19T09:56:10.973Z,56.20
2018-04-19T09:58:40.976Z,60.20
2018-04-19T10:01:11.018Z,59.80
2018-04-19T10:03:47.085Z,61.70
2018-04-19T10:06:17.851Z,58.20
2018-04-19T10:08:47.826Z,58.20
2018-04-19T10:11:17.786Z,60.10
2018-04-19T10:13:48.562Z,62.70
2018-04-19T10:16:18.491Z,62.70
2018-04-19T10:18:48.476Z,60.30
2018-04-19T10:21:19.555Z,59.10
2018-04-19T10:23:49.574Z,59.10
2018-04-19T10:26:20.402Z,62.40
2018-04-19T10:28:50.362Z,62.80
2018-04-19T10:31:21.118Z,60.00
2018-04-19T10:33:51.168Z,59.60
2018-04-19T10:36:21.117Z,57.00
2018-04-19T10:38:51.053Z,56.20
2018-04-19T10:41:22.209Z,56.40
2018-04-19T10:43:52.974Z,58.70
2018-04-19T10:46:22.901Z,59.10
2018-04-19T10:48:53.656Z,59.60
2018-04-19T10:51:23.644Z,59.60
2018-04-19T10:53:54.414Z,54.60
2018-04-19T10:56:25.196Z,55.10
2018-04-19T10:58:55.139Z,55.00
2018-04-19T11:01:25.110Z,53.30
2018-04-19T11:03:55.869Z,57.40
2018-04-19T11:06:25.878Z,57.50
2018-04-19T11:08:56.641Z,55.60
2018-04-19T11:11:26.562Z,55.40
2018-04-19T11:13:57.817Z,55.50
2018-04-19T11:16:27.760Z,55.60
2018-04-19T11:18:58.838Z,52.40
2018-04-19T11:21:29.524Z,54.40
2018-04-19T11:24:00.227Z,52.40
2018-04-19T11:26:30.235Z,52.40
2018-04-19T11:29:00.288Z,50.30
2018-04-19T11:31:31.047Z,55.30
2018-04-19T11:34:01.794Z,55.10
2018-04-19T11:36:31.806Z,55.20
2018-04-19T11:39:02.787Z,57.20
2018-04-19T11:41:33.533Z,55.80
2018-04-19T11:44:04.425Z,61.50
2018-04-19T11:46:35.133Z,56.60
2018-04-19T11:49:05.887Z,54.50
2018-04-19T11:51:36.613Z,53.70
2018-04-19T11:54:06.563Z,53.60
2018-04-19T11:56:37.360Z,51.60
2018-04-19T11:59:08.108Z,52.40
2018-04-19T12:01:38.945Z,50.60
2018-04-19T12:04:08.967Z,50.60
2018-04-19T12:06:38.923Z,52.80
2018-04-19T12:09:09.716Z,48.60
2018-04-19T12:11:39.695Z,48.60
2018-04-19T12:14:09.682Z,52.90
2018-04-19T12:16:39.610Z,50.40
2018-04-19T12:19:09.587Z,52.00
2018-04-19T12:21:40.552Z,47.80
2018-04-19T12:24:10.519Z,48.00
2018-04-19T12:26:41.425Z,49.70
2018-04-19T12:29:12.225Z,49.40
2018-04-19T12:31:44.723Z,50.40
2018-04-19T12:34:15.723Z,51.00
2018-04-19T12:36:45.671Z,47.60
2018-04-19T12:39:15.666Z,46.30
2018-04-19T12:41:46.470Z,43.40
2018-04-19T12:44:16.410Z,43.20
2018-04-19T12:46:46.347Z,46.10
2018-04-19T12:49:16.280Z,47.20
2018-04-19T12:51:47.127Z,48.70
2018-04-19T12:54:17.071Z,48.70
2018-04-19T12:56:47.711Z,46.90
2018-04-19T12:59:17.668Z,46.70
2018-04-19T13:01:47.602Z,43.50
2018-04-19T13:04:18.371Z,42.70
2018-04-19T13:06:49.098Z,44.20
2018-04-19T13:09:20.790Z,42.50
2018-04-19T13:11:51.577Z,39.50
2018-04-19T13:14:21.478Z,39.50
2018-04-19T13:16:52.189Z,39.60
2018-04-19T13:19:22.127Z,39.70
2018-04-19T13:21:52.829Z,39.60
2018-04-19T13:24:22.726Z,39.50
2018-04-19T13:26:52.801Z,38.90
2018-04-19T13:29:23.448Z,40.70
2018-04-19T13:31:53.322Z,40.60
2018-04-19T13:34:23.219Z,41.60
2018-04-19T13:36:53.125Z,44.90
2018-04-19T13:39:23.145Z,39.00
2018-04-19T13:41:54.741Z,40.60
2018-04-19T13:44:24.852Z,41.80
2018-04-19T13:46:56.759Z,38.90
2018-04-19T13:49:28.610Z,38.90
2018-04-19T13:51:59.308Z,40.10
2018-04-19T13:54:30.493Z,39.50
2018-04-19T13:57:01.114Z,39.50
2018-04-19T13:59:32.248Z,37.70
2018-04-19T14:02:02.347Z,41.50
2018-04-19T14:04:32.451Z,39.10
2018-04-19T14:07:03.206Z,39.00
2018-04-19T14:09:33.589Z,38.90
2018-04-19T14:12:04.391Z,41.10
2018-04-19T14:14:34.478Z,41.00
2018-04-19T14:17:05.401Z,39.40
2018-04-19T14:19:35.570Z,40.80
2018-04-19T14:22:06.157Z,40.80
2018-04-19T14:24:36.301Z,40.80
2018-04-19T14:27:06.291Z,39.80
2018-04-19T14:29:38.401Z,40.30
2018-04-19T14:32:08.410Z,40.20
2018-04-19T14:34:38.481Z,40.80
2018-04-19T14:37:09.282Z,41.00
2018-04-19T14:39:39.987Z,41.00
2018-04-19T14:42:11.933Z,40.50
2018-04-19T14:44:43.863Z,41.10
2018-04-19T14:47:14.653Z,39.70
2018-04-19T14:49:44.800Z,39.70
2018-04-19T14:52:14.810Z,39.00
2018-04-19T14:54:44.854Z,40.00
2018-04-19T14:57:17.834Z,42.80
2018-04-19T14:59:47.790Z,42.80
2018-04-19T15:02:18.522Z,41.60
2018-04-19T15:04:48.532Z,41.40
2018-04-19T15:07:22.131Z,39.80
2018-04-19T15:09:53.610Z,41.40
2018-04-19T15:12:24.802Z,41.40
2018-04-19T15:14:56.461Z,41.70
2018-04-19T15:17:27.291Z,40.40
2018-04-19T15:19:57.289Z,40.40
2018-04-19T15:22:27.307Z,39.10
2018-04-19T15:24:58.121Z,39.10
2018-04-19T15:27:28.151Z,39.00
2018-04-19T15:29:58.142Z,41.20
2018-04-19T15:32:29.518Z,40.90
2018-04-19T15:35:01.466Z,42.10
2018-04-19T15:37:31.597Z,42.10
2018-04-19T15:40:04.181Z,46.00
2018-04-19T15:42:34.265Z,46.00
2018-04-19T15:45:04.386Z,44.20
2018-04-19T15:47:36.145Z,43.60
2018-04-19T15:50:06.634Z,45.50
2018-04-19T15:52:38.361Z,44.30
2018-04-19T15:55:09.266Z,43.90
2018-04-19T15:57:40.070Z,46.50
2018-04-19T16:00:10.926Z,46.50
2018-04-19T16:02:41.074Z,44.50
2018-04-19T16:05:12.116Z,42.40
2018-04-19T16:07:42.266Z,44.70
2018-04-19T16:10:12.311Z,45.70
2018-04-19T16:12:43.155Z,45.60
2018-04-19T16:15:13.277Z,45.50
2018-04-19T16:17:44.030Z,46.30
2018-04-19T16:20:14.114Z,46.40
2018-04-19T16:22:44.185Z,44.60
2018-04-19T16:25:16.069Z,44.50
2018-04-19T16:27:46.215Z,44.70
2018-04-19T16:30:17.964Z,46.10
2018-04-19T16:32:50.390Z,46.20
2018-04-19T16:35:21.430Z,46.50
2018-04-19T16:37:51.542Z,46.50
2018-04-19T16:40:22.380Z,44.40
2018-04-19T16:42:53.285Z,44.40
2018-04-19T16:45:25.297Z,48.00
2018-04-19T16:47:56.790Z,47.20
2018-04-19T16:50:27.537Z,48.70
2018-04-19T16:53:00.093Z,48.80
2018-04-19T16:55:32.296Z,49.80
2018-04-19T16:58:04.296Z,49.30
2018-04-19T17:00:35.146Z,50.70
2018-04-19T17:03:08.191Z,51.70
2018-04-19T17:05:38.257Z,51.60
2018-04-19T17:08:08.289Z,52.00
2018-04-19T17:10:39.088Z,53.10
2018-04-19T17:13:10.914Z,54.40
2018-04-19T17:15:41.466Z,54.30
2018-04-19T17:18:14.597Z,54.70
2018-04-19T17:20:46.631Z,56.90
2018-04-19T17:23:17.329Z,56.70
2018-04-19T17:25:47.297Z,57.30
2018-04-19T17:28:17.256Z,55.80
2018-04-19T17:30:48.004Z,57.40
2018-04-19T17:33:18.049Z,59.90
2018-04-19T17:35:48.982Z,58.70
2018-04-19T17:38:19.814Z,59.40
2018-04-19T17:40:49.889Z,59.30
2018-04-19T17:43:20.756Z,57.30
2018-04-19T17:45:50.758Z,57.60
2018-04-19T17:48:26.128Z,59.20
2018-04-19T17:50:57.353Z,61.80
2018-04-19T17:53:29.146Z,61.80
2018-04-19T17:56:00.213Z,60.70
2018-04-19T17:58:31.425Z,60.40
2018-04-19T18:01:03.549Z,60.00
2018-04-19T18:03:35.790Z,60.10
2018-04-19T18:06:05.829Z,62.40
2018-04-19T18:08:36.567Z,58.80
2018-04-19T18:11:08.019Z,60.80
2018-04-19T18:13:38.778Z,60.70
2018-04-19T18:16:09.622Z,66.20
2018-04-19T18:18:39.682Z,66.20
2018-04-19T18:21:11.450Z,61.50
2018-04-19T18:23:43.304Z,65.80
2018-04-19T18:26:15.164Z,67.50
2018-04-19T18:28:45.068Z,67.30
2018-04-19T18:31:15.846Z,70.40
2018-04-19T18:33:48.956Z,69.10
2018-04-19T18:36:19.782Z,70.00
2018-04-19T18:38:50.732Z,69.90
2018-04-19T18:41:22.542Z,72.10
2018-04-19T18:43:53.390Z,75.60
2018-04-19T18:46:24.745Z,75.60
2018-04-19T18:48:57.079Z,73.10
2018-04-19T18:51:27.892Z,74.60
2018-04-19T18:53:59.141Z,74.50
2018-04-19T18:56:29.962Z,76.30
2018-04-19T18:58:59.978Z,76.20
2018-04-19T19:01:30.874Z,77.10
2018-04-19T19:04:01.721Z,75.90
2018-04-19T19:06:32.600Z,76.00
2018-04-19T19:09:02.751Z,76.20
2018-04-19T19:11:34.807Z,77.80
2018-04-19T19:14:05.880Z,78.00
2018-04-19T19:16:37.050Z,77.80
2018-04-19T19:19:26.337Z,76.30
2018-04-19T19:21:56.333Z,76.20
2018-04-19T19:24:28.008Z,78.60
2018-04-19T19:26:58.829Z,76.30
2018-04-19T19:29:28.869Z,76.30
2018-04-19T19:31:58.935Z,77.10
2018-04-19T19:34:30.494Z,79.90
2018-04-19T19:37:01.498Z,79.90
2018-04-19T19:39:32.290Z,80.30
2018-04-19T19:42:03.717Z,79.70
2018-04-19T19:44:33.845Z,79.80
2018-04-19T19:47:04.599Z,79.50
2018-04-19T19:49:35.374Z,79.50
2018-04-19T19:52:06.185Z,79.20
2018-04-19T19:54:37.287Z,79.10
2018-04-19T19:57:07.327Z,78.80
2018-04-19T19:59:38.978Z,77.80
2018-04-19T20:02:08.980Z,77.80
2018-04-19T20:04:38.982Z,79.20
2018-04-19T20:07:08.998Z,79.00
2018-04-19T20:09:39.847Z,78.20
2018-04-19T20:12:10.565Z,78.10
2018-04-19T20:14:40.530Z,78.50
2018-04-19T20:17:10.618Z,77.70
2018-04-19T20:19:41.526Z,78.90
2018-04-19T20:22:11.701Z,78.90
2018-04-19T20:24:42.566Z,78.30
2018-04-19T20:27:14.582Z,80.50
2018-04-19T20:29:45.402Z,80.40
2018-04-19T20:32:15.390Z,80.40
2018-04-19T20:34:46.350Z,81.90
2018-04-19T20:37:16.346Z,81.90
2018-04-19T20:39:47.107Z,78.80
2018-04-19T20:42:18.150Z,78.80
2018-04-19T20:44:49.186Z,78.80
2018-04-19T20:47:19.171Z,76.80
2018-04-19T20:49:51.031Z,77.10
2018-04-19T20:52:22.930Z,77.90
2018-04-19T20:54:54.513Z,77.80
2018-04-19T20:57:28.258Z,80.10
2018-04-19T20:59:59.034Z,78.60
2018-04-19T21:02:30.655Z,78.00
2018-04-19T21:05:01.458Z,78.40
2018-04-19T21:07:31.498Z,78.40
2018-04-19T21:10:02.985Z,76.90
2018-04-19T21:12:33.017Z,76.80
2018-04-19T21:15:04.769Z,78.60
2018-04-19T21:17:35.806Z,78.00
2018-04-19T21:20:05.840Z,78.10
2018-04-19T21:22:36.582Z,79.80
2018-04-19T21:25:07.226Z,79.20
2018-04-19T21:27:38.205Z,79.80
2018-04-19T21:30:08.236Z,82.70
2018-04-19T21:32:38.905Z,81.00
2018-04-19T21:35:08.839Z,79.80
2018-04-19T21:37:40.756Z,83.00
2018-04-19T21:40:10.728Z,82.90
2018-04-19T21:42:40.678Z,84.10
2018-04-19T21:45:12.112Z,81.30
2018-04-19T21:47:44.814Z,81.00
2018-04-19T21:50:15.690Z,80.60
2018-04-19T21:52:48.373Z,80.30
2018-04-19T21:55:19.813Z,81.10
2018-04-19T21:57:50.630Z,80.70
2018-04-19T22:00:20.630Z,80.70
2018-04-19T22:02:51.500Z,81.20
2018-04-19T22:05:21.601Z,81.20
2018-04-19T22:07:52.425Z,84.80
2018-04-19T22:10:22.438Z,84.60
2018-04-19T22:12:53.589Z,84.30
2018-04-19T22:15:25.488Z,81.50
2018-04-19T22:17:56.300Z,79.30
2018-04-19T22:20:27.871Z,78.90
2018-04-19T22:22:58.641Z,79.30
2018-04-19T22:25:28.654Z,79.10
2018-04-19T22:27:59.439Z,80.90
2018-04-19T22:30:29.588Z,81.70
2018-04-19T22:33:01.165Z,80.90
2018-04-19T22:35:31.186Z,80.80
2018-04-19T22:38:02.286Z,80.50
2018-04-19T22:40:32.374Z,82.60
2018-04-19T22:43:03.346Z,82.30
2018-04-19T22:45:34.290Z,83.50
2018-04-19T22:48:05.329Z,83.90
2018-04-19T22:50:36.138Z,83.90
2018-04-19T22:53:06.128Z,83.90
2018-04-19T22:55:36.129Z,84.50
2018-04-19T22:58:06.140Z,83.50
2018-04-19T23:00:38.084Z,81.70
2018-04-19T23:03:08.954Z,84.60
2018-04-19T23:05:39.761Z,85.00
2018-04-19T23:08:10.586Z,85.00
2018-04-19T23:10:40.606Z,85.00
2018-04-19T23:13:12.486Z,84.70
2018-04-19T23:15:43.228Z,84.40
2018-04-19T23:18:13.150Z,84.40
2018-04-19T23:20:44.107Z,83.60
2018-04-19T23:23:14.038Z,84.10
2018-04-19T23:25:44.591Z,85.20
2018-04-19T23:28:15.624Z,87.20
2018-04-19T23:30:48.366Z,85.70
2018-04-19T23:33:18.331Z,85.80
2018-04-19T23:35:49.686Z,87.90
2018-04-19T23:38:19.678Z,87.80
2018-04-19T23:40:50.429Z,89.00
2018-04-19T23:43:22.186Z,88.80
2018-04-19T23:45:53.010Z,88.50
2018-04-19T23:48:24.129Z,88.10
2018-04-19T23:50:56.329Z,88.00
2018-04-19T23:53:26.290Z,85.40
2018-04-19T23:55:56.882Z,86.20
2018-04-19T23:58:27.593Z,87.30
